Sacramento, California
Traffic Map
Current Weather Conditions
Sacramento, California
Clear
Clear
23°
Feels Like: 23°
Wind Chill: 23° Ceiling: Unl
Heat Index: 23° Visibility: 10mi
Dew Point: 11° Wind: 3mph
Humidity: 48% Direction: ° ()
Pressure: 29.9in Gusts: 0mph
Raw Report DataKSAC 242053Z VRB03KT 10SM CLR 23/11 A2990 RMK AO2 SLP124 T02280111 58028
Traffic Incident Summary
Active as of:
Severity:
Category:
InformationThere was an issue retrieving the traffic information for this location. Please try a different location or try again shortly.
Advertisements
Track Severe Weather on mobile